createdAt,value
2023-01-09T00:00:53.393Z,2.90
2023-01-09T00:03:20.645Z,2.80
2023-01-09T00:05:47.911Z,2.90
2023-01-09T00:08:15.439Z,2.70
2023-01-09T00:10:42.713Z,2.80
2023-01-09T00:13:11.956Z,2.60
2023-01-09T00:15:39.697Z,3.03
2023-01-09T00:18:07.195Z,2.70
2023-01-09T00:20:42.556Z,3.60
2023-01-09T00:23:09.825Z,3.30
2023-01-09T00:25:37.138Z,3.43
2023-01-09T00:28:04.485Z,3.63
2023-01-09T00:30:31.753Z,3.90
2023-01-09T00:32:59.005Z,4.03
2023-01-09T00:35:26.765Z,3.70
2023-01-09T00:37:54.046Z,3.20
2023-01-09T00:40:21.783Z,3.47
2023-01-09T00:42:56.028Z,3.33
2023-01-09T00:45:28.861Z,3.43
2023-01-09T00:48:01.103Z,3.93
2023-01-09T00:50:31.738Z,3.17
2023-01-09T00:53:04.213Z,3.57
2023-01-09T00:55:36.173Z,3.77
2023-01-09T00:58:38.063Z,3.97
2023-01-09T01:01:14.058Z,3.70
2023-01-09T01:03:50.722Z,3.10
2023-01-09T01:06:40.188Z,2.87
2023-01-09T01:09:08.359Z,3.10
2023-01-09T01:11:36.851Z,2.97
2023-01-09T01:14:09.483Z,3.27
2023-01-09T01:16:45.428Z,3.17
2023-01-09T01:19:14.526Z,2.73
2023-01-09T01:21:44.419Z,3.40
2023-01-09T01:24:20.162Z,3.10
2023-01-09T01:26:51.786Z,2.70
2023-01-09T01:29:22.779Z,3.23
2023-01-09T01:31:52.444Z,3.53
2023-01-09T01:34:23.261Z,2.70
2023-01-09T01:36:50.893Z,2.40
2023-01-09T01:39:18.375Z,2.67
2023-01-09T01:41:46.426Z,2.77
2023-01-09T01:44:33.537Z,2.80
2023-01-09T01:47:01.266Z,2.47
2023-01-09T01:49:28.786Z,2.60
2023-01-09T01:51:56.050Z,2.30
2023-01-09T01:54:24.810Z,2.37
2023-01-09T01:56:56.827Z,1.97
2023-01-09T01:59:28.317Z,1.80
2023-01-09T02:01:58.072Z,2.10
2023-01-09T02:04:26.935Z,1.40
2023-01-09T02:06:57.640Z,1.77
2023-01-09T02:09:27.278Z,1.60
2023-01-09T02:12:02.586Z,1.80
2023-01-09T02:14:31.645Z,1.40
2023-01-09T02:17:16.653Z,0.83
2023-01-09T02:19:57.903Z,0.90
2023-01-09T02:22:41.883Z,0.70
2023-01-09T02:25:18.548Z,0.60
2023-01-09T02:27:56.564Z,0.70
2023-01-09T02:30:31.591Z,0.63
2023-01-09T02:33:14.103Z,0.70
2023-01-09T02:35:41.302Z,0.53
2023-01-09T02:38:08.528Z,0.70
2023-01-09T02:40:48.696Z,0.50
2023-01-09T02:43:16.559Z,0.50
2023-01-09T02:45:44.379Z,0.47
2023-01-09T02:48:11.975Z,0.60
2023-01-09T02:50:58.219Z,0.40
2023-01-09T02:53:44.480Z,0.70
2023-01-09T02:56:14.713Z,0.73
2023-01-09T02:58:52.507Z,0.60
2023-01-09T03:01:27.011Z,0.50
2023-01-09T03:03:54.246Z,0.50
2023-01-09T03:06:27.530Z,0.87
2023-01-09T03:08:56.098Z,0.40
2023-01-09T03:11:23.963Z,0.67
2023-01-09T03:13:54.935Z,0.50
2023-01-09T03:16:26.792Z,0.90
2023-01-09T03:18:54.836Z,0.70
2023-01-09T03:21:23.257Z,0.70
2023-01-09T03:23:54.941Z,0.63
2023-01-09T03:26:22.260Z,1.00
2023-01-09T03:28:50.090Z,0.77
2023-01-09T03:31:17.681Z,0.67
2023-01-09T03:33:46.011Z,0.47
2023-01-09T03:36:13.857Z,0.60
2023-01-09T03:38:41.246Z,0.50
2023-01-09T03:41:08.748Z,0.70
2023-01-09T03:43:36.295Z,0.60
2023-01-09T03:46:03.908Z,0.77
2023-01-09T03:48:33.582Z,0.60
2023-01-09T03:51:00.944Z,0.60
2023-01-09T03:53:28.845Z,0.70
2023-01-09T03:55:57.049Z,0.70
2023-01-09T03:58:24.670Z,0.50
2023-01-09T04:00:52.801Z,0.80
2023-01-09T04:03:21.601Z,0.50
2023-01-09T04:05:50.551Z,0.80
2023-01-09T04:08:18.437Z,0.80
2023-01-09T04:10:46.427Z,0.67
2023-01-09T04:13:13.889Z,1.00
2023-01-09T04:15:41.145Z,1.00
2023-01-09T04:18:08.391Z,1.20
2023-01-09T04:20:35.746Z,1.70
2023-01-09T04:23:03.114Z,2.20
2023-01-09T04:25:30.342Z,2.63
2023-01-09T04:27:57.706Z,2.53
2023-01-09T04:30:27.296Z,2.87
2023-01-09T04:32:54.984Z,2.67
2023-01-09T04:35:22.536Z,3.30
2023-01-09T04:37:50.072Z,3.30
2023-01-09T04:40:18.100Z,3.07
2023-01-09T04:42:45.469Z,3.20
2023-01-09T04:45:15.394Z,3.70
2023-01-09T04:47:43.704Z,3.90
2023-01-09T04:50:11.691Z,3.27
2023-01-09T04:52:39.292Z,4.23
2023-01-09T04:55:08.911Z,3.80
2023-01-09T04:57:39.201Z,4.83
2023-01-09T05:00:12.193Z,4.93
2023-01-09T05:02:40.730Z,4.67
2023-01-09T05:05:11.423Z,4.93
2023-01-09T05:07:40.501Z,5.23
2023-01-09T05:10:09.351Z,6.27
2023-01-09T05:12:37.355Z,7.70
2023-01-09T05:15:05.621Z,8.00
2023-01-09T05:17:33.140Z,7.27
2023-01-09T05:20:01.065Z,8.70
2023-01-09T05:22:29.383Z,7.90
2023-01-09T05:24:57.539Z,8.57
2023-01-09T05:27:25.233Z,9.00
2023-01-09T05:29:54.799Z,6.87
2023-01-09T05:32:27.145Z,7.27
2023-01-09T05:34:57.074Z,5.30
2023-01-09T05:37:24.529Z,7.10
2023-01-09T05:43:41.884Z,6.47
2023-01-09T05:46:09.716Z,6.80
2023-01-09T05:48:37.835Z,6.17
2023-01-09T05:51:05.239Z,7.37
2023-01-09T05:53:32.585Z,9.13
2023-01-09T05:56:00.342Z,8.10
2023-01-09T05:58:28.159Z,7.33
2023-01-09T06:00:55.567Z,8.07
2023-01-09T06:03:22.955Z,8.87
2023-01-09T06:05:51.764Z,7.40
2023-01-09T06:08:19.250Z,7.97
2023-01-09T06:10:47.318Z,8.33
2023-01-09T06:13:14.762Z,8.83
2023-01-09T06:15:42.413Z,8.60
2023-01-09T06:18:10.027Z,8.20
2023-01-09T06:20:37.798Z,9.37
2023-01-09T06:23:08.266Z,9.37
2023-01-09T06:25:35.579Z,10.47
2023-01-09T06:28:03.043Z,9.70
2023-01-09T06:30:30.609Z,10.60
2023-01-09T06:33:01.546Z,10.93
2023-01-09T06:35:29.027Z,9.87
2023-01-09T06:37:56.976Z,9.97
2023-01-09T06:40:24.310Z,11.10
2023-01-09T06:42:51.552Z,11.43
2023-01-09T06:45:20.981Z,12.07
2023-01-09T06:47:50.128Z,11.40
2023-01-09T06:50:19.376Z,12.83
2023-01-09T06:52:46.679Z,15.07
2023-01-09T06:55:19.027Z,13.97
2023-01-09T06:57:46.656Z,14.00
2023-01-09T07:00:14.555Z,15.10
2023-01-09T07:02:41.947Z,14.17
2023-01-09T07:05:11.540Z,13.73
2023-01-09T07:07:39.813Z,16.70
2023-01-09T07:10:08.053Z,13.93
2023-01-09T07:12:35.508Z,15.43
2023-01-09T07:15:02.893Z,16.53
2023-01-09T07:17:30.403Z,16.63
2023-01-09T07:19:57.789Z,16.70
2023-01-09T07:22:25.175Z,15.43
2023-01-09T07:24:52.642Z,14.50
2023-01-09T07:27:20.066Z,13.90
2023-01-09T07:29:47.451Z,12.53
2023-01-09T07:32:14.945Z,11.40
2023-01-09T07:34:42.195Z,11.50
2023-01-09T07:37:12.952Z,10.00
2023-01-09T07:39:42.865Z,10.97
2023-01-09T07:42:10.810Z,10.60
2023-01-09T07:44:38.386Z,9.83
2023-01-09T07:47:05.887Z,9.13
2023-01-09T07:49:33.394Z,9.13
2023-01-09T07:52:00.773Z,6.73
2023-01-09T07:54:28.115Z,6.20
2023-01-09T07:56:59.039Z,5.47
2023-01-09T07:59:28.893Z,6.53
2023-01-09T08:01:56.830Z,5.47
2023-01-09T08:04:24.513Z,6.70
2023-01-09T08:06:52.633Z,5.93
2023-01-09T08:09:20.125Z,5.13
2023-01-09T08:12:07.963Z,4.73
2023-01-09T08:14:35.939Z,4.80
2023-01-09T08:17:03.556Z,3.43
2023-01-09T08:19:30.988Z,4.13
2023-01-09T08:21:58.253Z,3.37
2023-01-09T08:24:25.592Z,3.90
2023-01-09T08:26:52.986Z,4.13
2023-01-09T08:29:20.525Z,3.70
2023-01-09T08:31:49.094Z,4.13
2023-01-09T08:34:16.699Z,3.97
2023-01-09T08:36:44.043Z,3.93
2023-01-09T08:39:11.563Z,3.70
2023-01-09T08:42:00.053Z,3.80
2023-01-09T08:44:45.951Z,3.63
2023-01-09T08:47:15.695Z,3.57
2023-01-09T08:49:43.188Z,3.60
2023-01-09T08:52:10.627Z,3.90
2023-01-09T08:54:40.300Z,5.20
2023-01-09T08:57:08.711Z,4.00
2023-01-09T08:59:39.080Z,3.60
2023-01-09T09:02:06.719Z,3.30
2023-01-09T09:04:34.150Z,3.30
2023-01-09T09:07:01.676Z,3.80
2023-01-09T09:09:29.045Z,3.20
2023-01-09T09:11:58.892Z,3.50
2023-01-09T09:14:44.833Z,3.43
2023-01-09T09:17:12.166Z,3.83
2023-01-09T09:19:41.395Z,3.47
2023-01-09T09:22:08.861Z,3.00
2023-01-09T09:24:36.107Z,3.23
2023-01-09T09:27:04.801Z,2.77
2023-01-09T09:29:32.256Z,2.47
2023-01-09T09:32:00.971Z,2.33
2023-01-09T09:34:28.711Z,2.13
2023-01-09T09:36:56.139Z,2.70
2023-01-09T09:39:23.500Z,2.23
2023-01-09T09:42:27.720Z,1.80
2023-01-09T09:44:55.040Z,2.90
2023-01-09T09:47:43.305Z,2.90
2023-01-09T09:50:10.701Z,2.23
2023-01-09T09:52:45.848Z,1.77
2023-01-09T09:55:18.253Z,1.80
2023-01-09T09:57:47.191Z,1.87
2023-01-09T10:00:20.535Z,1.83
2023-01-09T10:02:51.681Z,1.40
2023-01-09T10:05:25.445Z,1.60
2023-01-09T10:07:53.524Z,1.63
2023-01-09T10:10:39.836Z,1.27
2023-01-09T10:13:27.823Z,1.20
2023-01-09T10:16:14.038Z,2.10
2023-01-09T10:18:44.790Z,1.80
2023-01-09T10:21:22.513Z,1.83
2023-01-09T10:23:54.842Z,1.40
2023-01-09T10:26:37.818Z,1.43
2023-01-09T10:29:14.536Z,2.20
2023-01-09T10:32:00.354Z,1.33
2023-01-09T10:34:27.582Z,1.60
2023-01-09T10:37:00.070Z,1.33
2023-01-09T10:39:40.051Z,1.60
2023-01-09T10:42:22.406Z,1.83
2023-01-09T10:44:56.153Z,1.83
2023-01-09T10:47:33.004Z,1.37
2023-01-09T10:50:00.918Z,1.60
2023-01-09T10:52:36.108Z,1.57
2023-01-09T10:55:12.861Z,2.27
2023-01-09T10:57:40.747Z,1.33
2023-01-09T11:00:09.335Z,1.10
2023-01-09T11:02:36.831Z,1.70
2023-01-09T11:05:04.330Z,1.10
2023-01-09T11:07:35.298Z,1.50
2023-01-09T11:10:05.001Z,1.30
2023-01-09T11:12:33.311Z,1.17
2023-01-09T11:15:27.145Z,1.40
2023-01-09T11:17:54.435Z,1.20
2023-01-09T11:20:25.831Z,1.17
2023-01-09T11:22:57.316Z,1.77
2023-01-09T11:25:25.856Z,1.20
2023-01-09T11:28:02.278Z,1.30
2023-01-09T11:30:30.431Z,1.63
2023-01-09T11:32:58.433Z,1.00
2023-01-09T11:35:34.765Z,1.50
2023-01-09T11:38:20.333Z,1.00
2023-01-09T11:40:52.148Z,1.27
2023-01-09T11:43:21.570Z,0.90
2023-01-09T11:46:01.668Z,1.20
2023-01-09T11:48:32.191Z,1.40
2023-01-09T11:51:01.025Z,1.80
2023-01-09T11:53:28.981Z,1.60
2023-01-09T11:56:03.093Z,1.07
2023-01-09T11:58:32.940Z,2.50
2023-01-09T12:01:00.145Z,1.30
2023-01-09T12:03:44.162Z,1.30
2023-01-09T12:06:11.343Z,1.40
2023-01-09T12:08:53.152Z,1.30
2023-01-09T12:11:27.844Z,1.00
2023-01-09T12:14:01.863Z,1.43
2023-01-09T12:16:48.790Z,1.83
2023-01-09T12:19:37.883Z,1.40
2023-01-09T12:22:24.095Z,1.70
2023-01-09T12:25:03.850Z,1.20
2023-01-09T12:27:56.723Z,1.90
2023-01-09T12:30:34.661Z,1.73
2023-01-09T12:33:12.279Z,1.43
2023-01-09T12:35:43.134Z,1.97
2023-01-09T12:38:10.623Z,2.10
2023-01-09T12:40:43.415Z,1.50
2023-01-09T12:43:20.507Z,2.13
2023-01-09T12:45:47.886Z,2.40
2023-01-09T12:48:35.150Z,2.57
2023-01-09T12:51:17.860Z,2.47
2023-01-09T12:53:49.915Z,2.77
2023-01-09T12:56:19.203Z,2.47
2023-01-09T12:58:55.306Z,2.30
2023-01-09T13:01:33.187Z,1.77
2023-01-09T13:04:03.636Z,1.47
2023-01-09T13:06:32.301Z,1.50
2023-01-09T13:09:07.754Z,2.10
2023-01-09T13:11:38.425Z,2.30
2023-01-09T13:14:11.499Z,2.53
2023-01-09T13:16:42.984Z,3.33
2023-01-09T13:19:16.456Z,3.80
2023-01-09T13:21:44.158Z,2.40
2023-01-09T13:24:11.533Z,1.97
2023-01-09T13:26:45.449Z,3.20
2023-01-09T13:29:18.666Z,3.27
2023-01-09T13:32:06.079Z,2.33
2023-01-09T13:34:34.935Z,2.70
2023-01-09T13:37:02.420Z,2.73
2023-01-09T13:39:35.061Z,2.10
2023-01-09T13:42:23.202Z,2.97
2023-01-09T13:44:52.899Z,2.17
2023-01-09T13:47:25.256Z,2.20
2023-01-09T13:49:52.511Z,2.10
2023-01-09T13:52:29.373Z,3.00
2023-01-09T13:54:58.238Z,1.97
2023-01-09T13:57:30.191Z,2.10
2023-01-09T14:00:22.401Z,2.07
2023-01-09T14:02:57.170Z,1.83
2023-01-09T14:05:24.587Z,2.27
2023-01-09T14:08:03.985Z,2.10
2023-01-09T14:10:35.119Z,1.97
2023-01-09T14:13:08.629Z,1.93
2023-01-09T14:15:40.624Z,2.20
2023-01-09T14:18:15.355Z,1.60
2023-01-09T14:20:44.571Z,2.00
2023-01-09T14:23:46.052Z,1.93
2023-01-09T14:26:20.406Z,2.17
2023-01-09T14:28:48.463Z,1.90
2023-01-09T14:31:30.619Z,2.57
2023-01-09T14:34:23.888Z,1.87
2023-01-09T14:37:00.008Z,2.00
2023-01-09T14:39:28.844Z,2.13
2023-01-09T14:42:12.192Z,1.63
2023-01-09T14:45:09.411Z,2.17
2023-01-09T14:47:45.729Z,1.93
2023-01-09T14:50:18.196Z,1.97
2023-01-09T14:52:49.025Z,2.30
2023-01-09T14:55:28.572Z,1.60
2023-01-09T14:58:21.346Z,2.10
2023-01-09T15:00:55.797Z,2.60
2023-01-09T15:03:27.114Z,1.80
2023-01-09T15:05:54.784Z,2.17
2023-01-09T15:08:24.885Z,2.33
2023-01-09T15:10:53.243Z,2.17
2023-01-09T15:13:40.936Z,2.97
2023-01-09T15:16:16.694Z,2.90
2023-01-09T15:18:44.989Z,2.73
2023-01-09T15:21:17.862Z,2.67
2023-01-09T15:23:45.152Z,3.03
2023-01-09T15:26:13.510Z,3.30
2023-01-09T15:28:42.941Z,2.83
2023-01-09T15:31:16.298Z,2.67
2023-01-09T15:33:44.744Z,3.37
2023-01-09T15:36:32.343Z,3.00
2023-01-09T15:39:00.218Z,3.40
2023-01-09T15:41:47.816Z,3.97
2023-01-09T15:44:18.015Z,4.80
2023-01-09T15:46:46.458Z,3.93
2023-01-09T15:49:14.849Z,4.43
2023-01-09T15:51:45.888Z,3.83
2023-01-09T15:54:17.718Z,5.53
2023-01-09T15:56:46.813Z,5.87
2023-01-09T15:59:28.137Z,5.37
2023-01-09T16:02:20.342Z,5.50
2023-01-09T16:04:48.374Z,5.63
2023-01-09T16:07:17.423Z,5.73
2023-01-09T16:09:47.619Z,5.43
2023-01-09T16:12:19.168Z,3.10
2023-01-09T16:14:50.171Z,1.33
2023-01-09T16:17:18.418Z,3.13
2023-01-09T16:19:50.173Z,2.10
2023-01-09T16:22:28.047Z,2.50
2023-01-09T16:24:57.641Z,3.70
2023-01-09T16:27:27.099Z,3.40
2023-01-09T16:29:58.631Z,3.40
2023-01-09T16:32:35.253Z,4.27
2023-01-09T16:35:07.340Z,5.50
2023-01-09T16:37:36.036Z,6.53
2023-01-09T16:40:10.020Z,9.73
2023-01-09T16:42:56.208Z,6.77
2023-01-09T16:45:30.568Z,9.90
2023-01-09T16:47:58.549Z,6.70
2023-01-09T16:50:27.562Z,9.47
2023-01-09T16:52:58.242Z,5.33
2023-01-09T16:55:26.898Z,4.30
2023-01-09T16:57:56.726Z,3.53
2023-01-09T17:00:24.137Z,4.37
2023-01-09T17:02:51.450Z,5.07
2023-01-09T17:05:18.804Z,5.60
2023-01-09T17:07:46.127Z,6.17
2023-01-09T17:10:18.853Z,6.63
2023-01-09T17:12:46.156Z,7.87
2023-01-09T17:15:13.565Z,9.03
2023-01-09T17:17:40.906Z,9.43
2023-01-09T17:20:14.742Z,9.30
2023-01-09T17:22:42.101Z,9.40
2023-01-09T17:25:32.684Z,9.30
2023-01-09T17:28:18.558Z,8.87
2023-01-09T17:30:45.914Z,11.17
2023-01-09T17:33:20.045Z,10.63
2023-01-09T17:35:47.501Z,10.20
2023-01-09T17:38:15.642Z,10.23
2023-01-09T17:40:43.673Z,11.27
2023-01-09T17:43:11.252Z,11.57
2023-01-09T17:45:41.021Z,11.33
2023-01-09T17:48:14.303Z,10.70
2023-01-09T17:50:41.697Z,9.57
2023-01-09T17:53:09.085Z,9.57
2023-01-09T17:55:36.538Z,8.97
2023-01-09T17:58:03.896Z,9.93
2023-01-09T18:00:36.757Z,9.47
2023-01-09T18:03:05.131Z,9.03
2023-01-09T18:05:32.502Z,9.50
2023-01-09T18:08:00.049Z,11.10
2023-01-09T18:10:27.842Z,11.13
2023-01-09T18:12:56.049Z,11.63
2023-01-09T18:15:24.479Z,12.37
2023-01-09T18:17:52.821Z,9.93
2023-01-09T18:20:20.382Z,11.97
2023-01-09T18:22:48.103Z,12.17
2023-01-09T18:25:15.512Z,10.27
2023-01-09T18:27:44.853Z,12.33
2023-01-09T18:30:12.474Z,8.10
2023-01-09T18:32:40.438Z,10.87
2023-01-09T18:35:08.919Z,9.97
2023-01-09T18:37:37.132Z,8.60
2023-01-09T18:40:04.975Z,9.87
2023-01-09T18:42:32.316Z,9.40
2023-01-09T18:44:59.679Z,7.93
2023-01-09T18:47:27.086Z,8.33
2023-01-09T18:49:54.493Z,8.77
2023-01-09T18:52:21.944Z,8.87
2023-01-09T18:54:49.527Z,8.43
2023-01-09T18:57:17.194Z,9.10
2023-01-09T18:59:44.542Z,9.70
2023-01-09T19:02:19.829Z,9.03
2023-01-09T19:04:47.271Z,9.00
2023-01-09T19:07:14.705Z,10.97
2023-01-09T19:09:42.880Z,17.13
2023-01-09T19:12:10.230Z,10.80
2023-01-09T19:14:37.813Z,12.00
2023-01-09T19:17:05.555Z,9.77
2023-01-09T19:19:34.575Z,10.37
2023-01-09T19:22:02.027Z,7.77
2023-01-09T19:24:31.519Z,10.27
2023-01-09T19:26:58.870Z,9.57
2023-01-09T19:29:27.460Z,10.07
2023-01-09T19:31:54.902Z,10.80
2023-01-09T19:34:22.397Z,10.30
2023-01-09T19:36:49.895Z,11.10
2023-01-09T19:39:17.461Z,11.43
2023-01-09T19:41:45.078Z,10.63
2023-01-09T19:44:12.665Z,11.73
2023-01-09T19:46:40.028Z,12.00
2023-01-09T19:49:08.852Z,11.73
2023-01-09T19:51:36.640Z,11.43
2023-01-09T19:56:39.695Z,13.27
2023-01-09T19:59:11.395Z,13.00
2023-01-09T20:01:41.595Z,12.97
2023-01-09T20:04:13.551Z,14.17
2023-01-09T20:06:41.961Z,15.23
2023-01-09T20:09:11.139Z,12.97
2023-01-09T20:11:41.103Z,15.07
2023-01-09T20:14:10.753Z,14.03
2023-01-09T20:16:38.211Z,14.27
2023-01-09T20:19:07.514Z,15.93
2023-01-09T20:21:35.739Z,15.30
2023-01-09T20:24:07.138Z,14.87
2023-01-09T20:26:35.140Z,16.53
2023-01-09T20:29:02.608Z,15.47
2023-01-09T20:31:31.755Z,16.30
2023-01-09T20:34:00.219Z,16.03
2023-01-09T20:36:30.094Z,14.27
2023-01-09T20:38:58.326Z,14.43
2023-01-09T20:41:25.946Z,15.93
2023-01-09T20:43:58.264Z,14.13
2023-01-09T20:46:27.003Z,13.47
2023-01-09T20:49:03.474Z,14.10
2023-01-09T20:51:31.312Z,14.20
2023-01-09T20:53:58.870Z,14.73
2023-01-09T20:56:27.231Z,14.00
2023-01-09T20:58:55.027Z,14.87
2023-01-09T21:01:25.848Z,15.23
2023-01-09T21:03:54.405Z,14.50
2023-01-09T21:06:22.764Z,16.07
2023-01-09T21:08:51.042Z,15.17
2023-01-09T21:11:18.743Z,17.03
2023-01-09T21:13:46.091Z,15.60
2023-01-09T21:16:14.872Z,15.57
2023-01-09T21:18:43.581Z,16.23
2023-01-09T21:21:13.962Z,15.90
2023-01-09T21:23:45.690Z,17.60
2023-01-09T21:26:13.642Z,15.77
2023-01-09T21:28:43.952Z,16.50
2023-01-09T21:31:11.568Z,17.23
2023-01-09T21:33:38.979Z,17.07
2023-01-09T21:36:07.016Z,17.80
2023-01-09T21:38:34.460Z,15.93
2023-01-09T21:41:21.843Z,15.77
2023-01-09T21:44:08.282Z,14.23
2023-01-09T21:46:56.064Z,15.63
2023-01-09T21:49:25.506Z,15.77
2023-01-09T21:51:56.245Z,16.50
2023-01-09T21:54:24.368Z,15.60
2023-01-09T21:56:52.254Z,15.77
2023-01-09T21:59:19.695Z,15.77
2023-01-09T22:01:48.476Z,14.37
2023-01-09T22:04:16.564Z,15.60
2023-01-09T22:06:44.000Z,13.37
2023-01-09T22:09:11.658Z,16.43
2023-01-09T22:11:39.589Z,15.27
2023-01-09T22:14:07.073Z,15.27
2023-01-09T22:16:34.769Z,13.87
2023-01-09T22:19:02.208Z,13.73
2023-01-09T22:21:29.635Z,13.07
2023-01-09T22:23:57.380Z,14.23
2023-01-09T22:26:24.723Z,15.27
2023-01-09T22:28:52.250Z,14.47
2023-01-09T22:31:21.197Z,14.50
2023-01-09T22:33:52.431Z,13.37
2023-01-09T22:36:20.419Z,14.43
2023-01-09T22:38:47.989Z,13.00
2023-01-09T22:41:15.765Z,14.73
2023-01-09T22:43:43.121Z,14.03
2023-01-09T22:46:11.858Z,12.97
2023-01-09T22:48:40.027Z,12.97
2023-01-09T22:51:09.069Z,12.80
2023-01-09T22:53:38.171Z,13.50
2023-01-09T22:56:08.366Z,16.13
2023-01-09T22:58:35.889Z,15.53
2023-01-09T23:01:04.020Z,13.33
2023-01-09T23:03:31.783Z,13.57
2023-01-09T23:06:11.446Z,14.00
2023-01-09T23:08:38.966Z,15.20
2023-01-09T23:11:07.869Z,14.10
2023-01-09T23:13:35.458Z,14.23
2023-01-09T23:16:02.844Z,13.77
2023-01-09T23:18:30.379Z,13.10
2023-01-09T23:21:02.053Z,15.50
2023-01-09T23:23:30.607Z,13.60
2023-01-09T23:25:59.575Z,14.37
2023-01-09T23:28:28.024Z,14.13
2023-01-09T23:30:55.417Z,14.07
2023-01-09T23:33:22.775Z,15.20
2023-01-09T23:35:50.201Z,12.47
2023-01-09T23:38:17.607Z,14.33
2023-01-09T23:40:45.228Z,13.47
2023-01-09T23:43:13.337Z,14.27
2023-01-09T23:45:41.812Z,14.40
2023-01-09T23:48:16.663Z,12.03
2023-01-09T23:50:44.937Z,13.87
2023-01-09T23:53:12.595Z,14.10
2023-01-09T23:55:40.050Z,14.33
2023-01-09T23:58:07.530Z,15.10
